Time;durP1;ratioP1;P1;durP2;ratioP2;P2;SDS_P1;SDS_P2;PMS_P1;PMS_P2;Temp;Humidity;BMP_temperature;BMP_pressure;BME280_temperature;BME280_humidity;BME280_pressure;Samples;Min_cycle;Max_cycle;Signal;HPM_P1;HPM_P2
2021/07/07 00:00:33;;;;;;;16.40;14.13;;;;;;;22.95;53.96;99954.03;126688;1089;102865;-80
2021/07/07 00:03:22;;;;;;;16.33;14.73;;;;;;;22.92;53.79;99954.31;126594;1090;114329;-80
2021/07/07 00:06:09;;;;;;;16.70;15.00;;;;;;;22.89;53.98;99959.91;126672;1090;102909;-80
2021/07/07 00:08:59;;;;;;;16.90;15.07;;;;;;;22.85;54.25;99964.66;126563;1090;114457;-80
2021/07/07 00:11:47;;;;;;;17.10;15.30;;;;;;;22.83;54.27;99958.64;126670;1088;102926;-80
2021/07/07 00:14:35;;;;;;;16.97;15.20;;;;;;;22.82;55.05;99951.64;126546;1090;114560;-80
2021/07/07 00:17:23;;;;;;;17.83;14.97;;;;;;;22.81;54.87;99957.06;126579;1090;102850;-80
2021/07/07 00:20:13;;;;;;;17.80;15.40;;;;;;;22.80;54.61;99961.54;126574;1090;102952;-80
2021/07/07 00:23:02;;;;;;;19.77;16.37;;;;;;;22.79;54.64;99958.98;126599;1090;113944;-80
2021/07/07 00:25:51;;;;;;;17.37;15.70;;;;;;;22.76;54.72;99962.75;126744;1089;102846;-80
2021/07/07 00:28:39;;;;;;;20.20;16.87;;;;;;;22.73;55.07;99964.84;126730;1090;114294;-80
2021/07/07 00:31:26;;;;;;;17.80;16.00;;;;;;;22.71;55.04;99958.83;126764;1090;103008;-81
2021/07/07 00:34:14;;;;;;;17.87;16.10;;;;;;;22.67;55.03;99958.26;126584;1090;114313;-80
2021/07/07 00:37:02;;;;;;;17.20;15.60;;;;;;;22.64;55.55;99958.53;126683;1088;102879;-80
2021/07/07 00:39:51;;;;;;;18.93;16.63;;;;;;;22.61;55.11;99970.24;126639;1090;113942;-80
2021/07/07 00:42:39;;;;;;;17.67;15.83;;;;;;;22.59;55.32;99963.38;126781;1090;102951;-80
2021/07/07 00:45:27;;;;;;;17.63;15.80;;;;;;;22.57;55.75;99960.02;126597;1089;113060;-80
2021/07/07 00:48:15;;;;;;;19.83;16.07;;;;;;;22.57;55.40;99960.02;126824;1088;102930;-80
2021/07/07 00:51:04;;;;;;;17.50;15.80;;;;;;;22.56;55.56;99950.36;126614;1090;114518;-80
2021/07/07 00:53:56;;;;;;;18.13;16.30;;;;;;;22.55;55.91;99951.34;126643;1090;102892;-79
2021/07/07 00:56:44;;;;;;;17.53;15.80;;;;;;;22.52;55.88;99952.45;126507;1090;113346;-79
2021/07/07 00:59:32;;;;;;;17.70;15.90;;;;;;;22.50;55.52;99958.88;126765;1088;102915;-79
2021/07/07 01:02:22;;;;;;;19.57;17.60;;;;;;;22.48;55.42;99958.17;126731;1090;102956;-79
2021/07/07 01:05:13;;;;;;;18.03;16.13;;;;;;;22.44;55.64;99960.26;126695;1090;113998;-80
2021/07/07 01:08:03;;;;;;;18.93;16.80;;;;;;;22.41;56.01;99954.34;126781;1090;101705;-80
2021/07/07 01:10:54;;;;;;;18.57;15.83;;;;;;;22.39;56.28;99953.63;126714;1090;114926;-80
2021/07/07 01:13:42;;;;;;;17.13;15.53;;;;;;;22.39;56.02;99953.63;126713;1090;103103;-80
2021/07/07 01:16:33;;;;;;;17.87;16.07;;;;;;;22.38;56.04;99939.50;126638;1089;114329;-80
2021/07/07 01:19:23;;;;;;;19.63;16.13;;;;;;;22.36;56.12;99953.90;126668;1090;103100;-80
2021/07/07 01:22:10;;;;;;;18.90;17.07;;;;;;;22.31;56.67;99960.45;126598;1090;114255;-80
2021/07/07 01:24:58;;;;;;;19.03;17.07;;;;;;;22.29;56.46;99961.56;126692;1090;102957;-80
2021/07/07 01:27:47;;;;;;;19.73;17.73;;;;;;;22.26;56.96;99954.70;126551;1090;114018;-80
2021/07/07 01:30:35;;;;;;;20.03;17.47;;;;;;;22.21;56.85;99953.39;126807;1088;102848;-80
2021/07/07 01:33:23;;;;;;;17.90;16.03;;;;;;;22.18;56.91;99956.31;126668;1090;113227;-80
2021/07/07 01:36:10;;;;;;;18.73;16.80;;;;;;;22.15;57.26;99949.45;126739;1089;103519;-80
2021/07/07 01:38:59;;;;;;;21.87;19.57;;;;;;;22.14;57.41;99952.23;126662;1090;113187;-80
2021/07/07 01:41:47;;;;;;;20.07;17.97;;;;;;;22.12;57.32;99954.19;126693;1089;103074;-80
2021/07/07 01:44:35;;;;;;;25.10;21.70;;;;;;;22.09;57.38;99955.30;126766;1088;102965;-80
2021/07/07 01:47:24;;;;;;;23.17;20.70;;;;;;;22.05;57.42;99953.84;126658;1090;114249;-80
2021/07/07 01:50:13;;;;;;;22.27;20.07;;;;;;;22.00;57.59;99950.71;126696;1089;102847;-80
2021/07/07 01:53:00;;;;;;;23.10;20.40;;;;;;;21.98;57.99;99953.50;126317;1090;114246;-80
2021/07/07 01:55:48;;;;;;;;;;;;;;;21.95;58.06;99956.41;126693;1090;102851;-80
2021/07/07 01:58:36;;;;;;;23.75;21.25;;;;;;;21.92;57.69;99959.33;126647;1089;102842;-79
2021/07/07 02:01:23;;;;;;;23.90;21.50;;;;;;;21.89;58.61;99959.56;126683;1090;103235;-80
2021/07/07 02:04:11;;;;;;;24.47;21.57;;;;;;;21.87;58.49;99960.67;126653;1090;114118;-80
2021/07/07 02:07:00;;;;;;;25.77;23.03;;;;;;;21.82;58.44;99954.91;126743;1090;102865;-80
2021/07/07 02:09:47;;;;;;;26.30;20.87;;;;;;;21.77;58.46;99954.45;126580;1090;114084;-80
2021/07/07 02:12:35;;;;;;;;;;;;;;;21.75;58.44;99956.41;126716;1089;102943;-80
2021/07/07 02:15:27;;;;;;;24.75;22.05;;;;;;;21.71;59.14;99961.94;126613;1090;102888;-80
2021/07/07 02:18:15;;;;;;;26.37;23.67;;;;;;;21.68;59.32;99962.20;126704;1090;102860;-80
2021/07/07 02:21:03;;;;;;;24.97;22.30;;;;;;;21.65;58.93;99967.77;126536;1090;114266;-80
2021/07/07 02:23:51;;;;;;;23.13;20.73;;;;;;;21.62;58.96;99961.88;126660;1090;103010;-80
2021/07/07 02:26:39;;;;;;;;;;;;;;;21.61;58.98;99965.50;126700;1090;102928;-80
2021/07/07 02:29:27;;;;;;;25.00;21.70;;;;;;;21.58;59.61;99971.91;126611;1089;102882;-81
2021/07/07 02:32:15;;;;;;;25.73;21.43;;;;;;;21.56;59.36;99971.19;126721;1089;102845;-80
2021/07/07 02:35:09;;;;;;;23.63;21.20;;;;;;;21.52;59.27;99972.39;126619;1089;114274;-80
2021/07/07 02:37:58;;;;;;;23.40;21.07;;;;;;;21.49;59.76;99974.45;126738;1090;102965;-80
2021/07/07 02:40:49;;;;;;;26.37;23.37;;;;;;;21.48;59.78;99970.96;126619;1090;114282;-80
2021/07/07 02:43:37;;;;;;;28.57;23.70;;;;;;;21.49;60.01;99977.11;126705;1090;102904;-80
2021/07/07 02:46:25;;;;;;;27.43;24.60;;;;;;;21.46;59.92;99986.17;126645;1088;114261;-80
2021/07/07 02:49:14;;;;;;;27.37;23.90;;;;;;;21.45;59.97;99984.48;126672;1090;103121;-80
2021/07/07 02:52:03;;;;;;;26.57;23.73;;;;;;;21.42;60.64;99984.73;126500;1089;113463;-80
2021/07/07 02:54:51;;;;;;;26.03;21.70;;;;;;;21.41;60.19;99973.28;126647;1089;102866;-80
2021/07/07 02:57:58;;;;;;;25.00;22.40;;;;;;;21.43;60.40;99988.23;126497;1090;114265;-80
2021/07/07 03:00:51;;;;;;;24.43;21.93;;;;;;;21.43;60.31;99981.12;126698;1088;102847;-80
2021/07/07 03:03:39;;;;;;;25.00;22.50;;;;;;;21.42;60.27;99982.08;126535;1090;114912;-80
2021/07/07 03:06:27;;;;;;;23.50;20.97;;;;;;;21.43;60.18;99991.73;126645;1090;102849;-80
2021/07/07 03:09:15;;;;;;;24.80;21.13;;;;;;;21.45;60.31;99992.44;126649;1090;113347;-80
2021/07/07 03:12:04;;;;;;;24.23;21.63;;;;;;;21.47;60.21;99992.31;126714;1090;102888;-80
2021/07/07 03:14:51;;;;;;;23.40;20.90;;;;;;;21.50;60.08;100003.52;126711;1090;103019;-80
2021/07/07 03:17:39;;;;;;;23.93;21.33;;;;;;;21.51;60.11;100005.20;126614;1089;114372;-80
2021/07/07 03:20:27;;;;;;;23.93;21.27;;;;;;;21.53;60.03;100011.22;126739;1090;103310;-80
2021/07/07 03:23:19;;;;;;;22.73;20.43;;;;;;;21.53;59.78;99997.95;126585;1089;114492;-80
2021/07/07 03:26:06;;;;;;;21.27;19.23;;;;;;;21.56;60.11;100000.38;126701;1089;102885;-80
2021/07/07 03:28:54;;;;;;;23.13;20.70;;;;;;;21.60;59.62;100001.81;126586;1089;114253;-80
2021/07/07 03:31:42;;;;;;;23.03;20.83;;;;;;;21.63;59.97;100001.55;126669;1090;103483;-80
2021/07/07 03:34:31;;;;;;;23.37;21.07;;;;;;;21.67;59.65;100002.98;126522;1090;114467;-80
2021/07/07 03:37:19;;;;;;;21.83;19.40;;;;;;;21.71;59.61;100004.41;126758;1090;102849;-80
2021/07/07 03:40:09;;;;;;;25.43;20.77;;;;;;;21.75;59.16;100007.68;126581;1090;114490;-80
2021/07/07 03:42:58;;;;;;;21.77;19.60;;;;;;;21.79;59.13;100009.10;126746;1090;102850;-80
2021/07/07 03:45:46;;;;;;;22.67;20.33;;;;;;;21.84;59.06;100006.06;126614;1090;114426;-80
2021/07/07 03:48:34;;;;;;;22.70;20.50;;;;;;;21.89;59.13;100009.17;126665;1090;102881;-80
2021/07/07 03:51:22;;;;;;;22.93;20.63;;;;;;;21.93;59.17;100008.81;126589;1090;114322;-80
2021/07/07 03:54:11;;;;;;;23.77;21.27;;;;;;;21.98;58.94;100011.08;126694;1090;102860;-80
2021/07/07 03:56:59;;;;;;;23.87;21.37;;;;;;;22.02;59.05;100012.50;126727;1090;101176;-80
2021/07/07 03:59:47;;;;;;;25.87;22.77;;;;;;;22.06;58.86;100013.95;126625;1090;113277;-80
2021/07/07 04:02:35;;;;;;;23.07;20.57;;;;;;;22.09;58.86;100018.20;126675;1090;102960;-79
2021/07/07 04:05:24;;;;;;;24.97;22.17;;;;;;;22.12;58.57;100018.77;126520;1090;114557;-79
2021/07/07 04:08:12;;;;;;;25.70;20.53;;;;;;;22.19;58.62;100019.09;126648;1090;102887;-79
2021/07/07 04:11:00;;;;;;;23.60;21.10;;;;;;;22.24;58.17;100017.72;126552;1088;114352;-79
2021/07/07 04:13:48;;;;;;;23.37;20.90;;;;;;;22.31;57.95;100021.56;126650;1088;102947;-79
2021/07/07 04:16:36;;;;;;;26.83;22.00;;;;;;;22.38;58.28;100018.38;126529;1090;114479;-79
2021/07/07 04:19:26;;;;;;;25.33;22.43;;;;;;;22.45;58.20;100031.03;126670;1089;102970;-79
2021/07/07 04:22:14;;;;;;;24.43;21.83;;;;;;;22.49;58.04;100026.30;126534;1090;114694;-79
2021/07/07 04:25:04;;;;;;;26.30;23.23;;;;;;;22.53;57.81;100023.23;126634;1090;102865;-79
2021/07/07 04:27:52;;;;;;;27.27;22.20;;;;;;;22.58;58.12;100030.80;126545;1090;114491;-79
2021/07/07 04:30:41;;;;;;;28.40;22.00;;;;;;;22.63;57.60;100022.46;126583;1090;103175;-79
2021/07/07 04:33:29;;;;;;;28.70;21.23;;;;;;;22.68;57.42;100018.42;126530;1090;114499;-79
2021/07/07 04:36:17;;;;;;;29.60;24.20;;;;;;;22.74;57.61;100009.91;126651;1090;102946;-79
2021/07/07 04:39:08;;;;;;;24.37;21.80;;;;;;;22.80;57.32;100021.82;126629;1090;103094;-79
2021/07/07 04:41:56;;;;;;;32.23;22.80;;;;;;;22.86;57.77;100021.34;126548;1089;114275;-79
2021/07/07 04:44:44;;;;;;;25.40;22.40;;;;;;;22.91;57.13;100027.09;126614;1089;102968;-79
2021/07/07 04:47:32;;;;;;;24.40;19.87;;;;;;;22.97;57.14;100021.23;126496;1090;115151;-78
2021/07/07 04:50:19;;;;;;;31.33;21.87;;;;;;;23.08;57.48;100028.28;126646;1090;102846;-78
2021/07/07 04:53:07;;;;;;;27.33;20.63;;;;;;;23.18;56.99;100034.49;126554;1090;114451;-78
2021/07/07 04:55:55;;;;;;;26.67;20.60;;;;;;;23.28;56.38;100042.49;126625;1090;102938;-78
2021/07/07 04:58:43;;;;;;;24.63;20.10;;;;;;;23.37;56.14;100037.21;126509;1089;114375;-78
2021/07/07 05:01:31;;;;;;;21.90;18.97;;;;;;;23.46;56.13;100035.54;126673;1089;102869;-78
2021/07/07 05:04:19;;;;;;;22.77;19.67;;;;;;;23.55;56.05;100044.53;126515;1089;114709;-79
2021/07/07 05:07:07;;;;;;;22.97;18.43;;;;;;;23.64;55.85;100036.58;126649;1090;102837;-79
2021/07/07 05:09:54;;;;;;;22.03;18.83;;;;;;;23.76;55.74;100043.48;126522;1090;113452;-79
2021/07/07 05:12:43;;;;;;;22.30;18.87;;;;;;;23.85;55.25;100047.11;126600;1090;103085;-79
2021/07/07 05:15:32;;;;;;;22.67;18.20;;;;;;;23.96;55.57;100046.16;126696;1090;102854;-79
2021/07/07 05:18:20;;;;;;;22.07;18.47;;;;;;;24.10;55.16;100040.41;126642;1090;102924;-79
2021/07/07 05:21:10;;;;;;;20.07;18.03;;;;;;;24.24;54.84;100039.98;126654;1090;103007;-79
2021/07/07 05:23:59;;;;;;;21.53;17.53;;;;;;;24.46;54.92;100041.52;126474;1088;114495;-79
2021/07/07 05:26:47;;;;;;;20.07;16.77;;;;;;;24.69;54.61;100040.20;126628;1089;102814;-79
2021/07/07 05:29:34;;;;;;;21.93;17.97;;;;;;;24.92;53.98;100047.84;126541;1089;115103;-79
2021/07/07 05:32:23;;;;;;;17.93;16.03;;;;;;;25.14;53.97;100034.19;126662;1089;102861;-79
2021/07/07 05:35:11;;;;;;;21.37;16.57;;;;;;;25.32;52.99;100034.23;126511;1090;114315;-79
2021/07/07 05:38:05;;;;;;;25.03;16.00;;;;;;;25.55;52.86;100042.66;126614;1088;102886;-79
2021/07/07 05:40:54;;;;;;;20.47;16.13;;;;;;;25.78;52.28;100045.77;126506;1090;113167;-79
2021/07/07 05:43:42;;;;;;;17.50;15.40;;;;;;;25.90;51.36;100048.06;126645;1090;102844;-79
2021/07/07 05:46:30;;;;;;;18.03;16.00;;;;;;;26.00;50.05;100058.66;126497;1089;114642;-79
2021/07/07 05:49:17;;;;;;;15.80;14.13;;;;;;;26.07;50.20;100053.56;126642;1090;102913;-79
2021/07/07 05:52:05;;;;;;;19.23;13.40;;;;;;;26.21;50.30;100050.33;126509;1088;114580;-79
2021/07/07 05:54:55;;;;;;;17.10;13.47;;;;;;;26.59;49.64;100048.33;126632;1088;102884;-79
2021/07/07 05:57:43;;;;;;;15.47;13.47;;;;;;;27.53;48.89;100049.14;126641;1090;103010;-79
2021/07/07 06:00:32;;;;;;;14.83;13.33;;;;;;;29.08;46.05;100051.85;126518;1089;114153;-79
2021/07/07 06:03:19;;;;;;;13.47;12.17;;;;;;;30.65;43.83;100053.23;126594;1090;102942;-79
2021/07/07 06:06:08;;;;;;;16.93;13.60;;;;;;;32.22;40.86;100046.48;126554;1089;114468;-79
2021/07/07 06:08:56;;;;;;;17.97;11.83;;;;;;;33.50;38.76;100047.97;126642;1089;102788;-77
2021/07/07 06:11:43;;;;;;;13.43;11.67;;;;;;;34.45;35.66;100046.91;126491;1089;114609;-79
2021/07/07 06:14:31;;;;;;;14.90;10.60;;;;;;;35.33;35.23;100045.47;126649;1088;102984;-79
2021/07/07 06:17:20;;;;;;;12.17;10.37;;;;;;;35.57;33.71;100049.38;126525;1090;114486;-77
2021/07/07 06:20:11;;;;;;;12.50;10.50;;;;;;;35.82;34.13;100044.00;126571;1090;102859;-77
2021/07/07 06:23:00;;;;;;;11.97;10.20;;;;;;;36.49;33.04;100042.49;126467;1090;114453;-78
2021/07/07 06:25:48;;;;;;;10.93;9.93;;;;;;;36.49;31.89;100045.20;126600;1090;102827;-78
2021/07/07 06:28:36;;;;;;;11.73;10.53;;;;;;;36.57;31.52;100055.78;126468;1090;114418;-79
2021/07/07 06:31:25;;;;;;;14.27;10.53;;;;;;;36.97;31.03;100049.95;126628;1090;103358;-78
2021/07/07 06:34:13;;;;;;;10.67;9.67;;;;;;;37.60;30.76;100046.08;126471;1090;114617;-78
2021/07/07 06:37:02;;;;;;;10.30;9.07;;;;;;;38.31;29.88;100040.63;126595;1090;103175;-79
2021/07/07 06:39:50;;;;;;;10.03;8.10;;;;;;;39.25;29.26;100046.03;126645;1090;102651;-79
2021/07/07 06:42:38;;;;;;;13.13;8.93;;;;;;;40.20;28.20;100034.45;126522;1089;114089;-79
2021/07/07 06:45:28;;;;;;;9.53;8.43;;;;;;;40.64;26.96;100043.64;126563;1089;102868;-79
2021/07/07 06:48:16;;;;;;;9.55;8.50;;;;;;;41.18;26.57;100038.36;126575;1090;114149;-79
2021/07/07 06:51:04;;;;;;;8.63;7.80;;;;;;;41.78;25.33;100047.55;126625;1090;102633;-79
2021/07/07 06:53:52;;;;;;;11.87;8.73;;;;;;;42.06;24.65;100030.01;126478;1088;113971;-78
2021/07/07 06:56:40;;;;;;;13.70;9.20;;;;;;;42.29;24.90;100037.88;126635;1090;102892;-78
2021/07/07 06:59:27;;;;;;;13.23;8.97;;;;;;;42.74;23.65;100042.05;126500;1088;113039;-79
2021/07/07 07:02:14;;;;;;;12.27;8.03;;;;;;;42.90;24.68;100037.48;126627;1090;102868;-79
2021/07/07 07:05:07;;;;;;;14.20;8.97;;;;;;;43.16;23.44;100041.17;126482;1089;114393;-79
2021/07/07 07:07:55;;;;;;;13.40;8.37;;;;;;;43.09;23.03;100050.48;126625;1089;103006;-78
2021/07/07 07:10:43;;;;;;;12.93;8.73;;;;;;;43.12;22.52;100055.44;126477;1090;114214;-78
2021/07/07 07:13:30;;;;;;;12.00;8.60;;;;;;;43.06;22.80;100056.48;126611;1090;102858;-78
2021/07/07 07:16:19;;;;;;;10.53;7.77;;;;;;;43.28;22.75;100055.49;126485;1090;114233;-78
2021/07/07 07:19:07;;;;;;;12.07;8.43;;;;;;;43.49;22.40;100056.41;126644;1089;102869;-78
2021/07/07 07:21:54;;;;;;;15.50;9.33;;;;;;;43.25;21.62;100062.32;126638;1089;104835;-77
2021/07/07 07:24:44;;;;;;;9.63;8.67;;;;;;;43.15;22.12;100056.81;126493;1090;114298;-77
2021/07/07 07:27:32;;;;;;;12.40;8.60;;;;;;;43.02;21.58;100058.12;126587;1090;103338;-77
2021/07/07 07:30:20;;;;;;;12.47;8.20;;;;;;;42.94;22.15;100053.16;126542;1090;114261;-77
2021/07/07 07:33:09;;;;;;;10.97;7.90;;;;;;;43.11;22.63;100058.45;126574;1090;102687;-77
2021/07/07 07:35:57;;;;;;;12.47;8.83;;;;;;;43.44;21.86;100054.45;126525;1090;114575;-77
2021/07/07 07:38:48;;;;;;;10.50;8.17;;;;;;;43.65;21.61;100058.92;126602;1090;102712;-78
2021/07/07 07:41:38;;;;;;;12.07;8.10;;;;;;;43.88;21.91;100051.28;126528;1089;114163;-78
2021/07/07 07:44:27;;;;;;;9.73;7.97;;;;;;;44.17;21.65;100057.92;126638;1089;102959;-78
2021/07/07 07:47:15;;;;;;;7.90;7.10;;;;;;;44.57;21.24;100061.75;126499;1090;114104;-78
2021/07/07 07:50:23;;;;;;;7.70;7.00;;;;;;;44.74;20.37;100051.25;126634;1090;102939;-78
2021/07/07 07:53:11;;;;;;;10.37;6.73;;;;;;;44.78;20.70;100052.33;126517;1090;114162;-78
2021/07/07 07:55:59;;;;;;;10.67;6.80;;;;;;;44.69;20.29;100053.99;126591;1090;102946;-78
2021/07/07 07:58:47;;;;;;;10.37;7.53;;;;;;;44.42;19.63;100067.23;126479;1090;113384;-78
2021/07/07 08:01:35;;;;;;;14.77;7.37;;;;;;;43.68;19.36;100054.80;126642;1089;102841;-78
2021/07/07 08:04:24;;;;;;;7.73;6.93;;;;;;;43.41;19.68;100049.50;126533;1089;114318;-79
2021/07/07 08:07:12;;;;;;;7.63;6.83;;;;;;;43.31;20.32;100054.98;126560;1090;102852;-79
2021/07/07 08:10:01;;;;;;;8.65;7.55;;;;;;;43.10;20.30;100057.63;126590;1090;102993;-79
2021/07/07 08:12:50;;;;;;;7.83;6.70;;;;;;;43.00;20.67;100054.82;126490;1090;112792;-79
2021/07/07 08:15:39;;;;;;;7.80;7.00;;;;;;;43.03;20.65;100061.69;126530;1090;103013;-79
2021/07/07 08:18:28;;;;;;;7.73;6.67;;;;;;;43.02;20.97;100062.78;126524;1090;113903;-79
2021/07/07 08:21:18;;;;;;;9.00;7.77;;;;;;;42.93;20.44;100065.23;126634;1090;102945;-79
2021/07/07 08:24:06;;;;;;;8.73;6.93;;;;;;;42.68;20.32;100065.03;126466;1090;113939;-79
2021/07/07 08:26:57;;;;;;;9.80;6.90;;;;;;;42.53;20.31;100063.84;126631;1090;102919;-79
2021/07/07 08:29:45;;;;;;;8.43;6.90;;;;;;;42.33;20.76;100060.93;126513;1090;114156;-79
2021/07/07 08:32:33;;;;;;;7.23;6.53;;;;;;;42.09;19.88;100054.17;126527;1090;102951;-79
2021/07/07 08:35:22;;;;;;;12.30;7.50;;;;;;;41.59;21.71;100071.70;126482;1090;114124;-78
2021/07/07 08:38:11;;;;;;;7.30;6.40;;;;;;;41.66;21.59;100069.63;126623;1090;102955;-78
2021/07/07 08:40:59;;;;;;;8.97;7.40;;;;;;;41.67;20.70;100078.67;126467;1090;115001;-79
2021/07/07 08:43:46;;;;;;;11.23;7.17;;;;;;;41.27;21.39;100069.69;126579;1089;102918;-79
2021/07/07 08:46:35;;;;;;;9.77;7.10;;;;;;;40.81;20.66;100076.42;126547;1089;114254;-79
2021/07/07 08:49:23;;;;;;;9.17;6.60;;;;;;;40.53;21.31;100080.09;126607;1089;102883;-78
2021/07/07 08:52:11;;;;;;;8.00;6.83;;;;;;;40.11;21.81;100061.36;126618;1088;102865;-78
2021/07/07 08:55:00;;;;;;;14.87;7.70;;;;;;;39.73;22.84;100064.75;126521;1090;113893;-80
2021/07/07 08:57:50;;;;;;;18.57;7.60;;;;;;;39.68;22.92;100072.00;126560;1090;102868;-79
2021/07/07 09:00:40;;;;;;;12.63;7.43;;;;;;;39.63;23.23;100070.02;126484;1090;114130;-79
2021/07/07 09:03:29;;;;;;;10.63;7.80;;;;;;;39.60;23.57;100067.77;126586;1088;102908;-78
2021/07/07 09:06:19;;;;;;;10.20;7.03;;;;;;;39.53;23.79;100067.93;126507;1089;114023;-79
2021/07/07 09:09:07;;;;;;;8.67;7.77;;;;;;;39.46;23.49;100069.92;126587;1089;104446;-79
2021/07/07 09:11:55;;;;;;;10.47;7.60;;;;;;;39.35;23.49;100079.00;126483;1090;113942;-79
2021/07/07 09:14:50;;;;;;;8.50;7.60;;;;;;;38.78;23.57;100089.70;126621;1090;102849;-79
2021/07/07 09:17:40;;;;;;;10.77;7.87;;;;;;;38.29;23.92;100082.80;126490;1090;113916;-79
2021/07/07 09:20:37;;;;;;;8.17;7.33;;;;;;;37.82;24.30;100093.52;126631;1089;102225;-78
2021/07/07 09:23:28;;;;;;;9.03;8.03;;;;;;;37.68;24.87;100089.28;126549;1090;113908;-78
2021/07/07 09:26:30;;;;;;;9.87;7.70;;;;;;;37.56;24.30;100091.97;126625;1090;102859;-78
2021/07/07 09:29:32;;;;;;;8.80;7.55;;;;;;;37.40;24.80;100081.72;126450;1090;114281;-78
2021/07/07 09:32:29;;;;;;;12.70;7.53;;;;;;;37.00;24.12;100098.46;126603;1090;102936;-78
2021/07/07 09:35:21;;;;;;;11.63;7.10;;;;;;;36.59;24.72;100090.87;126538;1089;114514;-78
2021/07/07 09:38:09;;;;;;;7.70;6.90;;;;;;;36.46;25.45;100091.01;126626;1089;103180;-78
2021/07/07 09:40:58;;;;;;;7.50;6.70;;;;;;;36.59;25.77;100083.55;126546;1090;114245;-78
2021/07/07 09:43:53;;;;;;;8.50;7.20;;;;;;;36.80;25.30;100104.08;126622;1090;103428;-78
2021/07/07 09:46:41;;;;;;;10.97;6.60;;;;;;;36.53;24.93;100098.03;126510;1089;114284;-78
2021/07/07 09:49:32;;;;;;;7.37;5.87;;;;;;;36.44;25.24;100091.20;126633;1090;102853;-78
2021/07/07 09:52:25;;;;;;;9.07;6.40;;;;;;;36.57;25.12;100087.55;126605;1090;103036;-78
2021/07/07 09:55:13;;;;;;;7.70;6.37;;;;;;;36.58;25.18;100090.04;126455;1090;113997;-78
2021/07/07 09:58:01;;;;;;;9.03;7.30;;;;;;;36.60;25.72;100096.08;126647;1089;102850;-78
2021/07/07 10:00:49;;;;;;;8.47;6.73;;;;;;;36.68;26.11;100099.59;126489;1090;114008;-78
2021/07/07 10:03:39;;;;;;;9.27;6.70;;;;;;;36.68;25.70;100092.27;126604;1090;102931;-78
2021/07/07 10:06:27;;;;;;;12.27;6.50;;;;;;;36.85;25.82;100092.55;126526;1090;114125;-78
2021/07/07 10:09:16;;;;;;;17.00;6.93;;;;;;;36.59;25.39;100090.87;126588;1090;103002;-78
2021/07/07 10:12:04;;;;;;;6.57;5.87;;;;;;;36.33;25.32;100094.66;126535;1088;114272;-77
2021/07/07 10:14:53;;;;;;;7.20;6.03;;;;;;;36.17;25.75;100103.30;126676;1089;102983;-78
2021/07/07 10:17:42;;;;;;;10.23;6.20;;;;;;;36.14;26.72;100095.60;126497;1090;114097;-79
2021/07/07 10:20:30;;;;;;;7.83;7.13;;;;;;;36.10;26.54;100088.95;126617;1090;103057;-79
2021/07/07 10:23:20;;;;;;;7.30;6.60;;;;;;;35.99;26.77;100094.02;126481;1090;114036;-78
2021/07/07 10:26:19;;;;;;;11.10;6.80;;;;;;;36.06;27.58;100095.84;126620;1090;102859;-79
2021/07/07 10:29:08;;;;;;;9.20;7.43;;;;;;;36.07;26.55;100101.06;126515;1089;114418;-78
2021/07/07 10:32:02;;;;;;;8.23;7.43;;;;;;;35.81;27.50;100103.91;126672;1090;103476;-78
2021/07/07 10:34:50;;;;;;;8.03;7.23;;;;;;;35.30;27.50;100102.84;126590;1090;102910;-78
2021/07/07 10:37:41;;;;;;;7.60;6.90;;;;;;;35.32;27.74;100100.75;126520;1090;102959;-78
2021/07/07 10:40:31;;;;;;;11.07;6.90;;;;;;;35.24;28.09;100101.00;126594;1090;102663;-79
2021/07/07 10:43:43;;;;;;;8.43;6.30;;;;;;;34.81;27.65;100093.33;126506;1089;114293;-78
2021/07/07 10:46:55;;;;;;;14.90;7.93;;;;;;;34.42;29.02;100096.07;126615;1090;102981;-79
2021/07/07 10:49:51;;;;;;;10.53;7.03;;;;;;;34.04;29.63;100093.09;126523;1089;114253;-79
2021/07/07 10:52:43;;;;;;;8.40;7.47;;;;;;;34.13;30.11;100105.40;126642;1090;102832;-79
2021/07/07 10:55:42;;;;;;;8.50;7.67;;;;;;;34.11;30.20;100102.04;126534;1090;114515;-79
2021/07/07 10:58:36;;;;;;;9.80;8.47;;;;;;;34.10;30.06;100101.20;126641;1089;102853;-79
2021/07/07 11:01:31;;;;;;;8.60;7.70;;;;;;;33.96;30.33;100096.83;126603;1090;114214;-79
2021/07/07 11:04:41;;;;;;;11.33;8.70;;;;;;;33.74;30.92;100097.97;126630;1088;102863;-79
2021/07/07 11:07:38;;;;;;;11.37;8.87;;;;;;;33.43;31.13;100115.55;126483;1089;114278;-79
2021/07/07 11:10:26;;;;;;;8.90;8.03;;;;;;;33.24;31.64;100108.14;126706;1088;102968;-79
2021/07/07 11:13:15;;;;;;;8.97;8.10;;;;;;;33.08;31.87;100103.89;126466;1090;114031;-78
2021/07/07 11:16:09;;;;;;;9.27;8.40;;;;;;;33.21;32.46;100114.75;126625;1090;102859;-78
2021/07/07 11:18:57;;;;;;;9.77;8.40;;;;;;;33.18;32.13;100117.03;126524;1089;114262;-79
2021/07/07 11:21:46;;;;;;;10.97;7.97;;;;;;;32.92;31.91;100110.44;126570;1090;102959;-79
2021/07/07 11:24:34;;;;;;;8.93;8.03;;;;;;;32.80;32.31;100106.60;126533;1090;113270;-78
2021/07/07 11:27:23;;;;;;;8.80;8.00;;;;;;;32.66;32.62;100102.09;126633;1089;103367;-79
2021/07/07 11:30:14;;;;;;;12.03;8.87;;;;;;;32.44;33.41;100102.13;126501;1090;114070;-78
2021/07/07 11:33:03;;;;;;;9.87;8.90;;;;;;;32.13;33.33;100112.39;126587;1090;101463;-78
2021/07/07 11:35:51;;;;;;;9.47;8.57;;;;;;;31.90;33.79;100111.73;126528;1088;114255;-78
2021/07/07 11:38:39;;;;;;;8.83;7.93;;;;;;;31.73;34.32;100101.17;126636;1090;103021;-78
2021/07/07 11:41:27;;;;;;;12.07;7.97;;;;;;;31.87;34.42;100094.08;126533;1089;114223;-78
2021/07/07 11:44:39;;;;;;;15.10;9.03;;;;;;;31.97;34.16;100102.70;126628;1090;103023;-78
2021/07/07 11:47:31;;;;;;;12.45;8.15;;;;;;;32.15;34.22;100105.80;126550;1088;113350;-79
2021/07/07 11:50:20;;;;;;;9.33;8.40;;;;;;;32.21;33.43;100098.78;126605;1089;103000;-79
2021/07/07 11:53:09;;;;;;;9.60;8.70;;;;;;;32.19;33.45;100106.23;126589;1090;102908;-78
2021/07/07 11:56:03;;;;;;;9.80;8.90;;;;;;;32.19;33.39;100111.64;126492;1090;114225;-78
2021/07/07 11:58:59;;;;;;;10.73;8.43;;;;;;;32.21;33.61;100096.09;126699;1090;102859;-78
2021/07/07 12:01:58;;;;;;;12.20;9.17;;;;;;;32.24;33.82;100103.79;126520;1090;114274;-79
2021/07/07 12:04:47;;;;;;;9.63;8.67;;;;;;;32.25;33.67;100105.45;126530;1090;103025;-79
2021/07/07 12:07:34;;;;;;;11.80;9.40;;;;;;;32.29;33.95;100090.57;126517;1090;114372;-79
2021/07/07 12:10:26;;;;;;;10.63;9.60;;;;;;;32.33;33.68;100091.88;126613;1090;102860;-78
2021/07/07 12:13:23;;;;;;;11.33;9.50;;;;;;;32.37;33.79;100090.45;126505;1090;114264;-79
2021/07/07 12:16:28;;;;;;;9.10;8.20;;;;;;;32.37;34.04;100095.85;126658;1090;102862;-79
2021/07/07 12:19:17;;;;;;;10.00;8.57;;;;;;;32.25;33.58;100097.36;126508;1089;114092;-79
2021/07/07 12:22:07;;;;;;;10.33;9.03;;;;;;;32.23;33.80;100091.33;126622;1088;103467;-79
2021/07/07 12:24:55;;;;;;;10.70;8.83;;;;;;;32.09;34.32;100100.31;126441;1089;114341;-78
2021/07/07 12:27:49;;;;;;;12.67;9.40;;;;;;;31.91;34.13;100103.45;126644;1089;100444;-78
2021/07/07 12:30:37;;;;;;;10.17;9.30;;;;;;;31.79;34.34;100111.22;126577;1090;114294;-78
2021/07/07 12:33:30;;;;;;;13.33;9.90;;;;;;;31.78;34.83;100101.46;126560;1090;102945;-78
2021/07/07 12:36:29;;;;;;;10.30;9.40;;;;;;;31.74;34.73;100094.75;126569;1090;114417;-79
2021/07/07 12:39:24;;;;;;;10.70;9.80;;;;;;;31.72;34.94;100112.12;126589;1090;102647;-78
2021/07/07 12:42:17;;;;;;;11.10;9.90;;;;;;;31.75;35.15;100109.07;126523;1089;114444;-78